CheckWX is a tool to help pilots better visualize weather data.  It is not intended as a substitute for an official pre-flight weather briefing.

16:47:09 UTC

EHRD METAR
Rotterdam Airport
Rotterdam, The Netherlands
Current

22 mins ago

EHRD 261625Z AUTO 32007KT 270V020 9999 NSC 22/09 Q1034 NOSIG
Observed
May-26 @ 16:25 UTC
Wind
  • 320° at 7 KTS
Visibility
10,000+ meters
Flight Rules
VFR
Cloud Levels
  • Clear skies
Temperature
22°C / 72°F
Dewpoint
C / 48°F
Humidity
44%
Altimeter
30.53" Hg
Pressure
1033.92 hPa
Previous

52 mins ago

EHRD 261555Z AUTO 32007KT 270V010 9999 NSC 23/10 Q1034 NOSIG
Observed
May-26 @ 15:55 UTC
Wind
  • 320° at 7 KTS
Visibility
10,000+ meters
Flight Rules
VFR
Cloud Levels
  • Clear skies
Temperature
23°C / 73°F
Dewpoint
10°C / 50°F
Humidity
44%
Altimeter
30.53" Hg
Pressure
1033.92 hPa
Previous

1 hour ago

EHRD 261525Z AUTO 29008KT 250V330 9999 NSC 23/09 Q1034 NOSIG
Observed
May-26 @ 15:25 UTC
Wind
  • 290° at 8 KTS
Visibility
10,000+ meters
Flight Rules
VFR
Cloud Levels
  • Clear skies
Temperature
23°C / 73°F
Dewpoint
C / 48°F
Humidity
41%
Altimeter
30.53" Hg
Pressure
1033.92 hPa